Impacts TAF Board
For situational awareness. Not to be used for flight planning purposes.
IDs:

KPIT - Pittsburgh Intl, PA, US

Issued at 2051 UTC 21 Sep 2021
Updated at 2313 UTC 21 Sep 2021
Potential Impact None Slight Moderate High
Time2251Z 22/00Z 22/01Z 22/02Z 22/03Z 22/04Z 22/05Z 22/06Z 22/07Z 22/08Z 22/09Z 22/10Z 22/11Z 22/12Z>>
Type OBS PRVL PRVL PRVL PRVL PRVL PRVL PRVL PRVL PRVL PRVL PRVL PRVL PRVL
VIS 10 >6 >6 >6 >6 >6 >6 4 4 4 4 4 4 4
CIG 39 50 50 50 50 50 50 30 30 30 15 15 15 15
Cover OVC BKN BKN BKN BKN BKN BKN OVC OVC OVC OVC OVC OVC OVC
FltCat VFR VFR VFR VFR VFR VFR VFR MVFR MVFR MVFR MVFR MVFR MVFR MVFR
WX -RA -SHRA -SHRA -SHRA -SHRA -SHRA -SHRA -SHRA -SHRA -SHRA -SHRA -SHRA -SHRA -SHRA
WDir 170 170 170 170 170 170 170 150 150 150 150 150 150 150
WSpd 3 6 6 6 6 6 6 5 5 5 5 5 5 5
WGst -- -- -- -- -- -- -- -- -- -- -- -- -- --
Raw TAF
KPIT 212051Z 2121/2224 17006KT P6SM -SHRA BKN050
  FM220600 15005KT 4SM -SHRA OVC030
  FM220900 15005KT 4SM -SHRA OVC015
  FM221300 14012KT P6SM VCSH BKN025
  FM221800 15009G18KT P6SM VCTS BKN025CB


Raw METAR
KPIT 212251Z 17003KT 10SM -RA BKN039 OVC070 21/19 A3013 RMK AO2 SLP204 P0000 T02110189
KPIT 212151Z 27003KT 10SM -RA BKN042 OVC075 22/18 A3013 RMK AO2 RAB22 SLP203 P0000 T02220183
KPIT 212051Z 24003KT 10SM BKN041 OVC070 23/18 A3013 RMK AO2 SLP203 T02280178 56016

METAR Board
Radar Display
Forecast Discussion
For situational awareness. Not to be used for flight planning purposes.